Irma, WI (54442)

8:46 PM CDT on August 02, 2015 (GMT -0500)
Tomahawk Weather | | Change Station
CLOSE
Current Station
Personal Weather Station
Location: Tomahawk, WI
Elevation: 1505 ft
Nearby Weather Stations

Elev 1505 ft 45.39 °N, 89.76 °W | Updated 1 second ago

Mostly Cloudy
Mostly Cloudy
65.6 °F
Feels Like 65.6 °F
N
1.0
Wind Variable Wind from WNW
Gusts 10.0 mph

Today
High -- | Low -- °F
--% Chance of Precip.
Yesterday
High -- | Low -- °F
Precip. -- in
5:43 AM 8:25 PM
Waning Gibbous, 90% visible
Pressure 29.72 in
Visibility 10.0 miles
Clouds Mostly Cloudy 6000 ft
Mostly Cloudy 8000 ft
Dew Point 59 °F
Humidity 78%
Rainfall 0.13 in
Snow Depth Not available.
UV 0 out of 12
Pollen 6.50 out of 12
Air Quality Not available.
Flu Activity Not available.
METAR KTKV 030135Z AUTO 33004KT 10SM BKN060 BKN080 18/14 A2972 RMK AO2 T01810136

More Conditions Fewer Conditions

Pressure 29.72 in
Visibility 10.0 miles
Clouds Mostly Cloudy 6000 ft
Mostly Cloudy 8000 ft
Dew Point 59 °F
Humidity 78%
Rainfall 0.13 in
Snow Depth Not available.
UV 0 out of 12
Pollen 6.50 out of 12
Air Quality Not available.
Flu Activity Not available.
METAR KTKV 030135Z AUTO 33004KT 10SM BKN060 BKN080 18/14 A2972 RMK AO2 T01810136

More Conditions Fewer Conditions

10-Day Weather Forecast

×

Almanac

Astronomy

Aug. 02, 2015 Rise Set
Actual Time
Civil Twilight
Nautical Twilight
Astronomical Twilight
Moon
Length of Visible Light
Length of Day
Tomorrow will be .
, % of the Moon is Illuminated

Today's Extremes

State Highs State Lows

Community

WunderPhotos

Upload Photos

1,843,512 photos uploaded!

WunderBlogs® & News

Nearby

Air Quality

  Air Quality AQ Index Pollutant
Not available.

Snow Depth

Station Depth Elevation

Earthquake Activity

City Distance Mag. Time & Date
Minimum magnitude displayed is 2.5.

Coastal Water Temperatures

Place Temperature

Stations

Nearby Weather Stations

Station Location Temp. Windchill Dew Point Humidity Wind Precip. Elev Updated Type